createdAt,value
2023-04-18T00:00:13.283Z,4.13
2023-04-18T00:00:48.949Z,3.83
2023-04-18T00:01:21.801Z,3.30
2023-04-18T00:01:56.613Z,3.85
2023-04-18T00:02:29.798Z,3.75
2023-04-18T00:03:04.352Z,4.53
2023-04-18T00:03:40.616Z,3.83
2023-04-18T00:04:14.147Z,3.67
2023-04-18T00:04:47.061Z,3.60
2023-04-18T00:05:22.575Z,4.07
2023-04-18T00:05:54.968Z,3.90
2023-04-18T00:06:27.136Z,3.92
2023-04-18T00:07:01.956Z,4.07
2023-04-18T00:07:34.458Z,4.07
2023-04-18T00:08:06.723Z,3.33
2023-04-18T00:08:41.483Z,3.28
2023-04-18T00:09:13.697Z,4.00
2023-04-18T00:09:45.963Z,3.35
2023-04-18T00:10:20.738Z,3.58
2023-04-18T00:10:54.262Z,4.05
2023-04-18T00:11:26.720Z,4.60
2023-04-18T00:12:03.193Z,4.15
2023-04-18T00:12:36.539Z,3.65
2023-04-18T00:13:08.729Z,3.65
2023-04-18T00:13:43.684Z,4.07
2023-04-18T00:14:15.999Z,3.72
2023-04-18T00:14:52.330Z,3.80
2023-04-18T00:15:29.385Z,3.25
2023-04-18T00:16:02.010Z,4.90
2023-04-18T00:16:34.326Z,3.45
2023-04-18T00:17:08.982Z,3.78
2023-04-18T00:17:43.858Z,3.75
2023-04-18T00:18:17.423Z,2.72
2023-04-18T00:18:49.850Z,4.05
2023-04-18T00:19:24.688Z,3.85
2023-04-18T00:19:58.470Z,4.18
2023-04-18T00:20:30.883Z,3.25
2023-04-18T00:21:06.654Z,3.47
2023-04-18T00:21:39.597Z,3.20
2023-04-18T00:22:13.303Z,3.63
2023-04-18T00:22:48.075Z,3.88
2023-04-18T00:23:22.399Z,3.50
2023-04-18T00:23:54.697Z,4.50
2023-04-18T00:24:29.454Z,3.42
2023-04-18T00:25:01.714Z,4.13
2023-04-18T00:25:34.140Z,3.20
2023-04-18T00:26:08.946Z,3.55
2023-04-18T00:26:41.581Z,3.88
2023-04-18T00:27:13.761Z,4.53
2023-04-18T00:27:48.605Z,3.88
2023-04-18T00:28:20.772Z,3.80
2023-04-18T00:28:54.317Z,4.20
2023-04-18T00:29:29.160Z,3.50
2023-04-18T00:30:04.487Z,4.63
2023-04-18T00:30:36.741Z,3.42
2023-04-18T00:31:12.624Z,3.58
2023-04-18T00:31:44.864Z,4.13
2023-04-18T00:32:17.186Z,4.43
2023-04-18T00:32:51.994Z,3.50
2023-04-18T00:33:24.418Z,4.18
2023-04-18T00:33:57.495Z,4.20
2023-04-18T00:34:32.316Z,3.75
2023-04-18T00:35:05.296Z,3.63
2023-04-18T00:35:38.687Z,3.65
2023-04-18T00:36:15.249Z,3.65
2023-04-18T00:36:47.413Z,4.65
2023-04-18T00:37:20.396Z,3.40
2023-04-18T00:37:57.100Z,4.38
2023-04-18T00:38:29.302Z,4.18
2023-04-18T00:39:04.438Z,4.45
2023-04-18T00:39:36.633Z,3.28
2023-04-18T00:40:10.264Z,3.97
2023-04-18T00:40:46.462Z,3.65
2023-04-18T00:41:19.572Z,3.85
2023-04-18T00:41:51.976Z,3.80
2023-04-18T00:42:28.997Z,5.18
2023-04-18T00:43:01.416Z,3.22
2023-04-18T00:43:35.298Z,4.15
2023-04-18T00:44:10.167Z,3.75
2023-04-18T00:44:42.405Z,3.30
2023-04-18T00:45:18.072Z,4.28
2023-04-18T00:45:52.943Z,3.75
2023-04-18T00:46:25.224Z,3.40
2023-04-18T00:46:57.411Z,5.03
2023-04-18T00:47:32.926Z,3.70
2023-04-18T00:48:05.371Z,3.58
2023-04-18T00:48:39.374Z,3.40
2023-04-18T00:49:14.831Z,3.60
2023-04-18T00:49:48.519Z,3.58
2023-04-18T00:50:21.375Z,4.10
2023-04-18T00:50:54.321Z,3.30
2023-04-18T00:51:29.229Z,3.45
2023-04-18T00:52:01.468Z,3.33
2023-04-18T00:52:36.097Z,3.28
2023-04-18T00:53:12.222Z,4.18
2023-04-18T00:53:45.033Z,3.80
2023-04-18T00:54:18.585Z,3.22
2023-04-18T00:54:53.761Z,4.57
2023-04-18T00:55:26.417Z,3.53
2023-04-18T00:55:58.710Z,3.67
2023-04-18T00:56:33.531Z,3.40
2023-04-18T00:57:06.195Z,3.90
2023-04-18T00:57:38.811Z,3.13
2023-04-18T00:58:14.078Z,3.13
2023-04-18T00:58:46.429Z,3.20
2023-04-18T00:59:19.009Z,3.33
2023-04-18T00:59:52.187Z,4.13
2023-04-18T01:00:30.039Z,3.70
2023-04-18T01:01:02.330Z,4.35
2023-04-18T01:01:34.691Z,3.55
2023-04-18T01:02:09.580Z,3.65
2023-04-18T01:02:41.943Z,3.20
2023-04-18T01:03:14.628Z,3.35
2023-04-18T01:03:47.087Z,3.38
2023-04-18T01:04:23.319Z,3.40
2023-04-18T01:04:55.612Z,4.35
2023-04-18T01:05:27.990Z,3.35
2023-04-18T01:06:02.897Z,3.90
2023-04-18T01:06:38.883Z,3.88
2023-04-18T01:07:11.977Z,3.70
2023-04-18T01:07:44.159Z,3.70
2023-04-18T01:08:20.036Z,3.63
2023-04-18T01:08:52.299Z,4.38
2023-04-18T01:09:25.484Z,3.33
2023-04-18T01:09:58.923Z,4.50
2023-04-18T01:10:33.815Z,3.10
2023-04-18T01:11:06.306Z,3.60
2023-04-18T01:11:38.541Z,3.33
2023-04-18T01:12:13.293Z,4.15
2023-04-18T01:12:45.726Z,3.60
2023-04-18T01:13:19.852Z,3.58
2023-04-18T01:14:04.421Z,4.28
2023-04-18T01:14:36.605Z,3.30
2023-04-18T01:15:09.415Z,3.92
2023-04-18T01:15:49.335Z,3.47
2023-04-18T01:16:22.491Z,3.47
2023-04-18T01:16:55.729Z,5.13
2023-04-18T01:17:31.010Z,4.22
2023-04-18T01:18:03.882Z,4.65
2023-04-18T01:18:37.285Z,3.65
2023-04-18T01:19:09.597Z,3.67
2023-04-18T01:19:44.686Z,2.90
2023-04-18T01:20:17.135Z,3.50
2023-04-18T01:20:50.871Z,3.90
2023-04-18T01:21:26.992Z,3.78
2023-04-18T01:22:01.736Z,4.35
2023-04-18T01:22:34.127Z,3.00
2023-04-18T01:23:06.490Z,3.70
2023-04-18T01:23:43.115Z,3.53
2023-04-18T01:24:18.356Z,5.43
2023-04-18T01:24:50.552Z,3.55
2023-04-18T01:25:25.314Z,3.33
2023-04-18T01:25:57.876Z,4.45
2023-04-18T01:26:31.400Z,3.25
2023-04-18T01:27:03.793Z,4.03
2023-04-18T01:27:38.543Z,3.53
2023-04-18T01:28:11.328Z,2.92
2023-04-18T01:28:43.549Z,3.30
2023-04-18T01:29:18.589Z,3.40
2023-04-18T01:29:50.887Z,3.85
2023-04-18T01:30:23.107Z,3.67
2023-04-18T01:30:59.294Z,4.40
2023-04-18T01:31:34.580Z,3.33
2023-04-18T01:32:07.486Z,3.75
2023-04-18T01:32:42.324Z,4.15
2023-04-18T01:33:14.544Z,3.60
2023-04-18T01:33:46.733Z,3.65
2023-04-18T01:34:24.066Z,3.00
2023-04-18T01:34:56.308Z,4.28
2023-04-18T01:35:28.962Z,3.72
2023-04-18T01:36:01.813Z,4.53
2023-04-18T01:36:41.387Z,3.13
2023-04-18T01:37:48.625Z,4.05
2023-04-18T01:38:23.543Z,3.40
2023-04-18T01:38:55.984Z,4.97
2023-04-18T01:39:30.761Z,3.88
2023-04-18T01:40:05.680Z,3.85
2023-04-18T01:40:37.945Z,3.97
2023-04-18T01:41:10.414Z,4.18
2023-04-18T01:41:45.470Z,3.38
2023-04-18T01:42:17.702Z,3.65
2023-04-18T01:42:49.929Z,3.88
2023-04-18T01:43:24.732Z,3.60
2023-04-18T01:43:57.004Z,4.32
2023-04-18T01:44:29.202Z,3.70
2023-04-18T01:45:04.058Z,4.28
2023-04-18T01:45:36.237Z,3.53
2023-04-18T01:46:08.453Z,4.18
2023-04-18T01:46:43.479Z,3.42
2023-04-18T01:47:15.752Z,4.25
2023-04-18T01:47:48.008Z,4.80
2023-04-18T01:48:22.793Z,3.80
2023-04-18T01:48:55.534Z,4.40
2023-04-18T01:49:27.862Z,4.32
2023-04-18T01:50:00.114Z,4.80
2023-04-18T01:50:36.952Z,4.90
2023-04-18T01:51:09.453Z,4.15
2023-04-18T01:51:44.101Z,4.20
2023-04-18T01:52:18.976Z,3.83
2023-04-18T01:52:51.147Z,4.15
2023-04-18T01:53:24.407Z,3.75
2023-04-18T01:53:59.226Z,5.15
2023-04-18T01:54:33.989Z,4.20
2023-04-18T01:55:06.906Z,4.90
2023-04-18T01:55:43.266Z,4.28
2023-04-18T01:56:15.547Z,4.35
2023-04-18T01:56:47.738Z,4.68
2023-04-18T01:57:22.595Z,4.38
2023-04-18T01:57:55.384Z,4.60
2023-04-18T01:58:27.674Z,4.00
2023-04-18T01:59:02.602Z,4.53
2023-04-18T01:59:34.844Z,3.45
2023-04-18T02:00:08.802Z,4.35
2023-04-18T02:00:49.890Z,4.50
2023-04-18T02:01:22.177Z,3.33
2023-04-18T02:01:55.037Z,4.63
2023-04-18T02:02:30.042Z,4.13
2023-04-18T02:03:03.161Z,4.20
2023-04-18T02:03:35.786Z,3.42
2023-04-18T02:04:10.926Z,4.65
2023-04-18T02:04:43.761Z,3.40
2023-04-18T02:05:16.057Z,3.47
2023-04-18T02:05:50.901Z,3.65
2023-04-18T02:06:23.128Z,3.17
2023-04-18T02:06:55.324Z,3.78
2023-04-18T02:07:30.183Z,3.83
2023-04-18T02:08:02.635Z,4.60
2023-04-18T02:08:36.151Z,3.15
2023-04-18T02:09:14.017Z,3.55
2023-04-18T02:09:50.881Z,4.00
2023-04-18T02:10:23.340Z,4.07
2023-04-18T02:10:58.078Z,3.95
2023-04-18T02:11:30.733Z,2.97
2023-04-18T02:12:03.434Z,4.30
2023-04-18T02:12:38.285Z,5.00
2023-04-18T02:13:10.643Z,4.32
2023-04-18T02:13:42.875Z,4.05
2023-04-18T02:14:17.665Z,4.05
2023-04-18T02:14:52.030Z,4.28
2023-04-18T02:15:24.571Z,7.70
2023-04-18T02:15:59.474Z,4.43
2023-04-18T02:16:31.827Z,4.22
2023-04-18T02:17:04.043Z,4.68
2023-04-18T02:17:37.022Z,4.05
2023-04-18T02:18:12.419Z,3.58
2023-04-18T02:18:45.584Z,3.40
2023-04-18T02:19:19.205Z,3.55
2023-04-18T02:19:54.455Z,4.20
2023-04-18T02:20:27.029Z,3.92
2023-04-18T02:20:59.191Z,4.75
2023-04-18T02:21:33.949Z,4.30
2023-04-18T02:22:06.158Z,3.50
2023-04-18T02:22:38.556Z,3.72
2023-04-18T02:23:13.654Z,3.88
2023-04-18T02:23:45.829Z,4.13
2023-04-18T02:24:18.185Z,3.63
2023-04-18T02:24:55.523Z,4.80
2023-04-18T02:25:29.063Z,3.80
2023-04-18T02:26:01.466Z,4.43
2023-04-18T02:26:36.263Z,3.25
2023-04-18T02:27:08.523Z,3.50
2023-04-18T02:27:41.087Z,4.97
2023-04-18T02:28:16.097Z,3.42
2023-04-18T02:28:48.417Z,3.55
2023-04-18T02:29:20.895Z,3.55
2023-04-18T02:29:53.057Z,3.65
2023-04-18T02:30:28.494Z,4.72
2023-04-18T02:31:00.871Z,4.05
2023-04-18T02:31:33.548Z,3.90
2023-04-18T02:32:09.355Z,3.50
2023-04-18T02:32:41.773Z,3.60
2023-04-18T02:33:14.719Z,3.88
2023-04-18T02:33:47.260Z,4.78
2023-04-18T02:34:22.130Z,3.45
2023-04-18T02:34:54.311Z,4.70
2023-04-18T02:35:28.149Z,4.32
2023-04-18T02:36:02.900Z,4.90
2023-04-18T02:36:35.166Z,4.43
2023-04-18T02:37:08.297Z,4.78
2023-04-18T02:37:43.072Z,3.65
2023-04-18T02:38:18.085Z,5.35
2023-04-18T02:38:50.325Z,3.50
2023-04-18T02:39:28.609Z,4.47
2023-04-18T02:40:05.103Z,4.57
2023-04-18T02:40:37.634Z,3.85
2023-04-18T02:41:15.413Z,3.78
2023-04-18T02:41:47.653Z,4.13
2023-04-18T02:42:20.103Z,4.28
2023-04-18T02:42:54.980Z,5.03
2023-04-18T02:43:27.269Z,4.22
2023-04-18T02:43:59.458Z,5.18
2023-04-18T02:44:34.251Z,3.90
2023-04-18T02:45:08.362Z,4.72
2023-04-18T02:45:40.718Z,4.18
2023-04-18T02:46:15.630Z,4.35
2023-04-18T02:46:50.513Z,7.72
2023-04-18T02:47:23.116Z,4.75
2023-04-18T02:47:57.960Z,5.82
2023-04-18T02:48:30.376Z,5.30
2023-04-18T02:49:03.070Z,4.95
2023-04-18T02:49:35.272Z,3.83
2023-04-18T02:50:11.444Z,4.38
2023-04-18T02:50:43.786Z,4.03
2023-04-18T02:51:16.608Z,4.63
2023-04-18T02:51:51.351Z,5.22
2023-04-18T02:52:25.798Z,5.60
2023-04-18T02:52:58.022Z,5.68
2023-04-18T02:53:40.205Z,5.00
2023-04-18T02:54:12.669Z,4.57
2023-04-18T02:55:05.462Z,4.60
2023-04-18T02:55:42.857Z,4.72
2023-04-18T02:56:19.808Z,4.15
2023-04-18T02:57:19.498Z,4.50
2023-04-18T02:58:09.508Z,5.50
2023-04-18T02:59:14.634Z,5.35
2023-04-18T03:00:11.355Z,5.45
2023-04-18T03:01:09.385Z,5.20
2023-04-18T03:02:13.287Z,5.90
2023-04-18T03:02:53.524Z,5.65
2023-04-18T03:03:39.476Z,5.43
2023-04-18T03:04:52.511Z,4.97
2023-04-18T03:05:24.905Z,5.10
2023-04-18T03:06:00.587Z,6.35
2023-04-18T03:06:36.282Z,5.47
2023-04-18T03:07:08.461Z,4.80
2023-04-18T03:07:43.179Z,5.15
2023-04-18T03:08:18.347Z,5.18
2023-04-18T03:08:50.729Z,5.25
2023-04-18T03:09:22.990Z,4.95
2023-04-18T03:10:06.122Z,6.00
2023-04-18T03:10:40.911Z,4.30
2023-04-18T03:11:13.503Z,5.53
2023-04-18T03:11:48.276Z,4.38
2023-04-18T03:12:21.352Z,4.47
2023-04-18T03:12:53.646Z,5.35
2023-04-18T03:13:26.686Z,4.63
2023-04-18T03:14:01.806Z,5.22
2023-04-18T03:14:40.985Z,5.38
2023-04-18T03:15:13.293Z,5.88
2023-04-18T03:15:48.165Z,5.15
2023-04-18T03:16:21.102Z,5.72
2023-04-18T03:16:55.541Z,5.88
2023-04-18T03:17:34.850Z,4.38
2023-04-18T03:18:07.167Z,5.38
2023-04-18T03:18:42.144Z,4.95
2023-04-18T03:19:17.132Z,6.07
2023-04-18T03:19:49.497Z,6.43
2023-04-18T03:20:24.700Z,6.32
2023-04-18T03:21:00.889Z,5.45
2023-04-18T03:21:34.762Z,6.20
2023-04-18T03:22:07.020Z,5.10
2023-04-18T03:22:44.655Z,7.97
2023-04-18T03:23:17.712Z,6.43
2023-04-18T03:23:50.570Z,5.78
2023-04-18T03:24:25.339Z,5.03
2023-04-18T03:25:02.466Z,6.50
2023-04-18T03:25:58.049Z,4.97
2023-04-18T03:26:31.282Z,6.53
2023-04-18T03:27:03.613Z,5.72
2023-04-18T03:27:38.423Z,5.20
2023-04-18T03:28:10.764Z,6.93
2023-04-18T03:28:43.000Z,6.47
2023-04-18T03:29:17.819Z,5.78
2023-04-18T03:29:51.651Z,6.22
2023-04-18T03:30:23.921Z,7.30
2023-04-18T03:31:03.341Z,7.18
2023-04-18T03:31:37.260Z,8.52
2023-04-18T03:32:12.819Z,5.20
2023-04-18T03:32:46.895Z,6.60
2023-04-18T03:33:19.152Z,7.68
2023-04-18T03:33:56.388Z,7.97
2023-04-18T03:34:28.828Z,6.93
2023-04-18T03:35:01.297Z,5.53
2023-04-18T03:35:36.504Z,4.93
2023-04-18T03:36:11.513Z,6.38
2023-04-18T03:36:46.559Z,6.05
2023-04-18T03:37:20.044Z,5.90
2023-04-18T03:38:00.161Z,9.45
2023-04-18T03:38:40.708Z,4.85
2023-04-18T03:39:13.824Z,5.75
2023-04-18T03:39:48.900Z,5.53
2023-04-18T03:40:23.840Z,6.63
2023-04-18T03:41:01.233Z,5.38
2023-04-18T03:41:38.587Z,4.95
2023-04-18T03:42:10.939Z,4.93
2023-04-18T03:42:46.622Z,5.00
2023-04-18T03:43:19.717Z,6.15
2023-04-18T03:43:51.944Z,6.53
2023-04-18T03:44:26.746Z,5.78
2023-04-18T03:44:59.024Z,5.30
2023-04-18T03:45:32.912Z,7.20
2023-04-18T03:46:08.059Z,8.73
2023-04-18T03:46:41.440Z,5.47
2023-04-18T03:47:15.054Z,4.88
2023-04-18T03:47:52.419Z,5.18
2023-04-18T03:48:26.238Z,6.00
2023-04-18T03:49:00.019Z,5.95
2023-04-18T03:49:34.788Z,7.22
2023-04-18T03:50:09.368Z,5.10
2023-04-18T03:50:41.767Z,4.95
2023-04-18T03:51:18.314Z,4.75
2023-04-18T03:51:52.263Z,7.30
2023-04-18T03:52:24.970Z,5.38
2023-04-18T03:52:59.740Z,4.95
2023-04-18T03:53:35.134Z,6.25
2023-04-18T03:54:07.392Z,5.93
2023-04-18T03:54:42.206Z,6.03
2023-04-18T03:55:14.967Z,6.57
2023-04-18T03:55:53.158Z,6.35
2023-04-18T03:56:29.864Z,4.70
2023-04-18T03:57:03.256Z,5.47
2023-04-18T03:57:40.244Z,5.28
2023-04-18T03:58:16.445Z,6.03
2023-04-18T03:58:51.785Z,5.18
2023-04-18T03:59:25.911Z,5.75
2023-04-18T03:59:58.143Z,5.15
2023-04-18T04:00:33.266Z,7.93
2023-04-18T04:01:11.241Z,4.93
2023-04-18T04:01:43.582Z,5.28
2023-04-18T04:02:18.578Z,5.85
2023-04-18T04:02:51.256Z,6.20
2023-04-18T04:03:28.027Z,4.32
2023-04-18T04:04:04.111Z,5.60
2023-04-18T04:04:36.503Z,5.68
2023-04-18T04:05:09.380Z,6.35
2023-04-18T04:05:44.450Z,6.50
2023-04-18T04:06:17.912Z,5.40
2023-04-18T04:06:50.826Z,6.28
2023-04-18T04:07:25.651Z,5.78
2023-04-18T04:07:58.423Z,6.40
2023-04-18T04:08:30.720Z,6.25
2023-04-18T04:09:05.687Z,6.80
2023-04-18T04:09:38.423Z,6.70
2023-04-18T04:10:11.815Z,7.30
2023-04-18T04:10:44.060Z,7.40
2023-04-18T04:11:22.073Z,6.22
2023-04-18T04:11:54.258Z,6.30
2023-04-18T04:12:27.313Z,7.40
2023-04-18T04:13:02.137Z,7.00
2023-04-18T04:13:36.327Z,6.10
2023-04-18T04:14:11.290Z,5.65
2023-04-18T04:14:48.172Z,7.82
2023-04-18T04:15:23.078Z,6.82
2023-04-18T04:16:01.191Z,7.88
2023-04-18T04:16:33.739Z,7.50
2023-04-18T04:17:06.736Z,7.40
2023-04-18T04:17:41.642Z,6.40
2023-04-18T04:18:13.877Z,7.07
2023-04-18T04:18:48.825Z,7.03
2023-04-18T04:19:24.030Z,7.25
2023-04-18T04:20:06.504Z,7.00
2023-04-18T04:20:39.294Z,7.22
2023-04-18T04:21:20.641Z,6.85
2023-04-18T04:21:56.725Z,7.47
2023-04-18T04:22:29.028Z,6.55
2023-04-18T04:23:03.930Z,7.43
2023-04-18T04:23:38.240Z,8.52
2023-04-18T04:24:10.721Z,6.75
2023-04-18T04:24:49.675Z,7.43
2023-04-18T04:25:28.839Z,8.13
2023-04-18T04:26:06.888Z,7.85
2023-04-18T04:26:50.933Z,7.45
2023-04-18T04:27:29.392Z,6.43
2023-04-18T04:28:03.023Z,8.70
2023-04-18T04:28:40.106Z,6.63
2023-04-18T04:29:16.576Z,6.05
2023-04-18T04:29:52.379Z,6.40
2023-04-18T04:30:24.720Z,6.57
2023-04-18T04:31:00.158Z,7.75
2023-04-18T04:31:32.953Z,6.32
2023-04-18T04:32:06.832Z,6.82
2023-04-18T04:32:45.737Z,7.75
2023-04-18T04:33:18.719Z,8.85
2023-04-18T04:33:51.216Z,8.18
2023-04-18T04:34:28.486Z,6.88
2023-04-18T04:35:00.942Z,7.55
2023-04-18T04:35:37.669Z,6.45
2023-04-18T04:36:10.434Z,8.77
2023-04-18T04:36:43.356Z,6.07
2023-04-18T04:37:20.996Z,6.13
2023-04-18T04:38:08.728Z,6.93
2023-04-18T04:38:52.480Z,5.78
2023-04-18T04:39:30.528Z,6.75
2023-04-18T04:40:37.640Z,5.80
2023-04-18T04:41:15.229Z,5.28
2023-04-18T04:41:50.165Z,5.88
2023-04-18T04:42:28.713Z,6.70
2023-04-18T04:43:12.912Z,5.78
2023-04-18T04:43:48.415Z,7.25
2023-04-18T04:44:27.092Z,6.68
2023-04-18T04:44:59.976Z,8.45
2023-04-18T04:45:35.296Z,7.60
2023-04-18T04:46:07.962Z,8.23
2023-04-18T04:46:40.608Z,6.15
2023-04-18T04:47:22.155Z,5.75
2023-04-18T04:47:54.521Z,6.95
2023-04-18T04:48:27.186Z,5.43
2023-04-18T04:49:02.521Z,7.25
2023-04-18T04:49:34.717Z,6.15
2023-04-18T04:50:13.491Z,5.53
2023-04-18T04:50:55.262Z,5.72
2023-04-18T04:51:28.228Z,5.32
2023-04-18T04:52:02.092Z,5.68
2023-04-18T04:52:37.204Z,5.30
2023-04-18T04:53:09.533Z,6.00
2023-04-18T04:53:41.883Z,5.32
2023-04-18T04:54:16.851Z,5.65
2023-04-18T04:54:51.613Z,6.60
2023-04-18T04:55:27.726Z,5.15
2023-04-18T04:56:00.031Z,6.75
2023-04-18T04:56:35.643Z,5.97
2023-04-18T04:57:10.899Z,6.57
2023-04-18T04:57:43.239Z,7.95
2023-04-18T04:58:33.205Z,7.15
2023-04-18T04:59:12.016Z,5.75
2023-04-18T04:59:46.902Z,5.88
2023-04-18T05:00:23.058Z,6.03
2023-04-18T05:00:56.677Z,7.07
2023-04-18T05:01:31.633Z,5.78
2023-04-18T05:02:04.712Z,8.75
2023-04-18T05:02:37.064Z,9.18
2023-04-18T05:03:12.613Z,8.18
2023-04-18T05:03:45.211Z,7.15
2023-04-18T05:04:20.362Z,7.00
2023-04-18T05:04:52.831Z,7.55
2023-04-18T05:05:25.043Z,6.95
2023-04-18T05:05:59.855Z,6.90
2023-04-18T05:06:32.286Z,6.85
2023-04-18T05:07:05.982Z,6.80
2023-04-18T05:07:40.821Z,5.75
2023-04-18T05:08:13.040Z,5.13
2023-04-18T05:08:47.855Z,6.93
2023-04-18T05:09:20.062Z,7.82
2023-04-18T05:09:55.047Z,8.15
2023-04-18T05:10:27.302Z,6.82
2023-04-18T05:11:02.056Z,7.53
2023-04-18T05:11:34.280Z,8.60
2023-04-18T05:12:06.988Z,7.18
2023-04-18T05:12:44.352Z,7.13
2023-04-18T05:13:16.946Z,6.38
2023-04-18T05:13:49.117Z,6.68
2023-04-18T05:14:23.888Z,8.43
2023-04-18T05:14:56.079Z,8.00
2023-04-18T05:15:28.362Z,6.60
2023-04-18T05:16:03.243Z,7.35
2023-04-18T05:16:36.014Z,6.70
2023-04-18T05:17:10.886Z,7.53
2023-04-18T05:17:43.216Z,9.30
2023-04-18T05:18:15.704Z,6.35
2023-04-18T05:18:50.569Z,8.95
2023-04-18T05:19:23.607Z,12.48
2023-04-18T05:19:58.600Z,8.07
2023-04-18T05:20:30.882Z,7.75
2023-04-18T05:21:03.113Z,7.22
2023-04-18T05:21:38.023Z,8.65
2023-04-18T05:22:10.923Z,8.93
2023-04-18T05:22:43.110Z,7.47
2023-04-18T05:23:17.891Z,8.27
2023-04-18T05:23:50.097Z,9.55
2023-04-18T05:24:22.368Z,8.43
2023-04-18T05:24:57.131Z,8.20
2023-04-18T05:25:30.106Z,7.70
2023-04-18T05:26:02.363Z,9.00
2023-04-18T05:26:37.182Z,7.05
2023-04-18T05:27:10.068Z,7.72
2023-04-18T05:27:46.008Z,6.55
2023-04-18T05:28:20.850Z,8.63
2023-04-18T05:28:53.083Z,8.05
2023-04-18T05:29:25.817Z,8.05
2023-04-18T05:30:00.685Z,7.82
2023-04-18T05:30:32.884Z,8.00
2023-04-18T05:31:05.270Z,7.53
2023-04-18T05:31:40.026Z,7.30
2023-04-18T05:32:12.237Z,8.20
2023-04-18T05:32:44.728Z,7.85
2023-04-18T05:33:19.522Z,9.02
2023-04-18T05:33:51.736Z,9.35
2023-04-18T05:34:24.032Z,9.00
2023-04-18T05:34:59.452Z,12.52
2023-04-18T05:35:31.875Z,8.45
2023-04-18T05:36:04.527Z,8.77
2023-04-18T05:36:39.855Z,9.75
2023-04-18T05:37:12.085Z,7.75
2023-04-18T05:37:44.351Z,8.73
2023-04-18T05:38:19.228Z,8.50
2023-04-18T05:38:51.888Z,8.85
2023-04-18T05:39:24.086Z,8.85
2023-04-18T05:40:00.757Z,9.77
2023-04-18T05:40:33.442Z,9.82
2023-04-18T05:41:05.949Z,7.10
2023-04-18T05:41:40.726Z,7.85
2023-04-18T05:42:12.897Z,7.78
2023-04-18T05:42:47.718Z,7.75
2023-04-18T05:43:22.772Z,6.43
2023-04-18T05:44:04.985Z,6.43
2023-04-18T05:44:40.646Z,5.53
2023-04-18T05:45:12.932Z,5.60
2023-04-18T05:45:45.591Z,6.20
2023-04-18T05:46:20.441Z,7.88
2023-04-18T05:46:52.725Z,7.97
2023-04-18T05:47:27.267Z,7.03
2023-04-18T05:48:02.200Z,7.78
2023-04-18T05:48:34.443Z,8.27
2023-04-18T05:49:06.678Z,8.73
2023-04-18T05:49:41.657Z,7.03
2023-04-18T05:50:14.031Z,6.20
2023-04-18T05:50:46.347Z,5.65
2023-04-18T05:51:21.162Z,5.15
2023-04-18T05:51:53.365Z,8.13
2023-04-18T05:52:26.353Z,7.32
2023-04-18T05:53:01.691Z,5.60
2023-04-18T05:53:33.905Z,6.68
2023-04-18T05:54:08.867Z,8.65
2023-04-18T05:54:41.367Z,7.45
2023-04-18T05:55:13.620Z,7.30
2023-04-18T05:55:49.132Z,6.78
2023-04-18T05:56:21.381Z,6.32
2023-04-18T05:56:54.856Z,7.13
2023-04-18T05:57:29.629Z,6.40
2023-04-18T05:58:04.525Z,7.22
2023-04-18T05:58:39.334Z,6.05
2023-04-18T05:59:11.570Z,7.95
2023-04-18T05:59:44.027Z,6.32
2023-04-18T06:00:20.046Z,10.68
2023-04-18T06:00:53.551Z,7.30
2023-04-18T06:01:25.837Z,7.95
2023-04-18T06:02:00.993Z,7.85
2023-04-18T06:02:33.304Z,8.07
2023-04-18T06:03:07.182Z,7.20
2023-04-18T06:03:43.792Z,10.73
2023-04-18T06:04:17.055Z,7.25
2023-04-18T06:04:50.001Z,6.80
2023-04-18T06:05:25.084Z,6.85
2023-04-18T06:05:57.812Z,9.45
2023-04-18T06:06:30.236Z,7.82
2023-04-18T06:07:05.125Z,7.80
2023-04-18T06:07:37.342Z,8.25
2023-04-18T06:08:09.658Z,6.70
2023-04-18T06:08:44.391Z,6.05
2023-04-18T06:09:16.819Z,8.48
2023-04-18T06:09:49.966Z,5.07
2023-04-18T06:10:24.900Z,6.55
2023-04-18T06:10:57.099Z,8.32
2023-04-18T06:11:29.307Z,6.68
2023-04-18T06:12:04.375Z,7.72
2023-04-18T06:12:36.575Z,6.13
2023-04-18T06:13:14.504Z,7.15
2023-04-18T06:13:46.739Z,6.55
2023-04-18T06:14:18.941Z,6.15
2023-04-18T06:14:53.812Z,8.40
2023-04-18T06:15:26.093Z,7.35
2023-04-18T06:16:01.056Z,7.50
2023-04-18T06:16:33.354Z,8.40
2023-04-18T06:17:07.449Z,6.43
2023-04-18T06:17:42.409Z,6.30
2023-04-18T06:18:14.687Z,7.90
2023-04-18T06:18:46.861Z,7.55
2023-04-18T06:19:22.185Z,6.38
2023-04-18T06:19:54.437Z,8.80
2023-04-18T06:20:29.330Z,7.57
2023-04-18T06:21:01.501Z,7.28
2023-04-18T06:21:36.289Z,7.05
2023-04-18T06:22:08.473Z,8.45
2023-04-18T06:22:43.251Z,8.88
2023-04-18T06:23:15.882Z,10.15
2023-04-18T06:23:50.690Z,8.23
2023-04-18T06:24:23.286Z,8.57
2023-04-18T06:24:55.914Z,8.48
2023-04-18T06:25:30.742Z,7.88
2023-04-18T06:26:03.095Z,6.53
2023-04-18T06:26:38.287Z,8.02
2023-04-18T06:27:20.445Z,7.63
2023-04-18T06:28:02.904Z,6.82
2023-04-18T06:28:37.755Z,8.10
2023-04-18T06:29:09.941Z,5.60
2023-04-18T06:29:44.695Z,7.75
2023-04-18T06:30:17.107Z,5.90
2023-04-18T06:30:52.148Z,6.95
2023-04-18T06:31:24.452Z,6.30
2023-04-18T06:31:59.391Z,7.72
2023-04-18T06:32:31.761Z,8.93
2023-04-18T06:33:10.522Z,8.98
2023-04-18T06:33:42.772Z,6.75
2023-04-18T06:34:15.316Z,7.38
2023-04-18T06:34:50.570Z,7.70
2023-04-18T06:35:24.555Z,9.25
2023-04-18T06:36:01.295Z,8.10
2023-04-18T06:36:33.723Z,7.95
2023-04-18T06:37:06.121Z,8.25
2023-04-18T06:37:44.209Z,7.20
2023-04-18T06:38:16.407Z,6.63
2023-04-18T06:38:51.178Z,7.50
2023-04-18T06:39:23.364Z,8.50
2023-04-18T06:39:55.706Z,7.47
2023-04-18T06:40:30.511Z,7.28
2023-04-18T06:41:02.851Z,6.82
2023-04-18T06:41:37.631Z,8.10
2023-04-18T06:42:09.862Z,5.60
2023-04-18T06:42:52.301Z,5.53
2023-04-18T06:43:24.613Z,6.72
2023-04-18T06:44:14.666Z,5.85
2023-04-18T06:44:46.922Z,6.32
2023-04-18T06:45:21.957Z,7.40
2023-04-18T06:45:54.255Z,7.00
2023-04-18T06:46:29.114Z,6.80
2023-04-18T06:47:01.667Z,5.00
2023-04-18T06:47:33.879Z,6.00
2023-04-18T06:48:10.889Z,5.97
2023-04-18T06:48:43.153Z,6.90
2023-04-18T06:49:17.983Z,6.13
2023-04-18T06:49:50.255Z,6.00
2023-04-18T06:50:25.318Z,7.53
2023-04-18T06:50:57.575Z,6.85
2023-04-18T06:51:29.764Z,6.43
2023-04-18T06:52:04.557Z,5.88
2023-04-18T06:52:40.773Z,6.90
2023-04-18T06:53:15.646Z,5.85
2023-04-18T06:53:48.648Z,7.40
2023-04-18T06:54:23.466Z,5.82
2023-04-18T06:54:55.632Z,7.03
2023-04-18T06:55:30.892Z,8.23
2023-04-18T06:56:03.275Z,7.65
2023-04-18T06:56:36.633Z,7.22
2023-04-18T06:57:11.987Z,6.85
2023-04-18T06:57:44.362Z,5.15
2023-04-18T06:58:17.394Z,7.13
2023-04-18T06:58:53.141Z,6.53
2023-04-18T06:59:28.195Z,7.28
2023-04-18T07:00:03.012Z,5.20
2023-04-18T07:00:35.240Z,6.65
2023-04-18T07:01:10.054Z,5.78
2023-04-18T07:01:42.331Z,33.58
2023-04-18T07:02:17.463Z,7.28
2023-04-18T07:02:49.950Z,4.57
2023-04-18T07:03:22.421Z,7.70
2023-04-18T07:03:57.438Z,6.40
2023-04-18T07:04:29.861Z,6.43
2023-04-18T07:05:02.218Z,6.85
2023-04-18T07:05:37.003Z,5.90
2023-04-18T07:06:10.720Z,5.53
2023-04-18T07:06:45.740Z,4.85
2023-04-18T07:07:17.945Z,6.28
2023-04-18T07:07:52.779Z,6.38
2023-04-18T07:08:24.936Z,8.13
2023-04-18T07:09:00.300Z,5.63
2023-04-18T07:09:35.312Z,8.88
2023-04-18T07:10:09.966Z,6.40
2023-04-18T07:10:46.002Z,7.63
2023-04-18T07:11:18.787Z,6.15
2023-04-18T07:11:53.724Z,6.55
2023-04-18T07:12:26.119Z,6.90
2023-04-18T07:13:00.954Z,6.05
2023-04-18T07:13:33.564Z,7.75
2023-04-18T07:14:08.437Z,5.80
2023-04-18T07:14:43.282Z,7.25
2023-04-18T07:15:18.154Z,7.38
2023-04-18T07:15:50.395Z,5.63
2023-04-18T07:16:25.315Z,8.43
2023-04-18T07:16:58.108Z,5.28
2023-04-18T07:17:30.353Z,5.95
2023-04-18T07:18:05.324Z,5.55
2023-04-18T07:18:38.586Z,7.57
2023-04-18T07:19:13.624Z,8.60
2023-04-18T07:19:45.935Z,9.45
2023-04-18T07:20:20.743Z,8.77
2023-04-18T07:20:52.940Z,7.57
2023-04-18T07:21:25.135Z,8.23
2023-04-18T07:22:00.049Z,6.28
2023-04-18T07:22:32.231Z,7.32
2023-04-18T07:23:07.053Z,5.30
2023-04-18T07:23:39.274Z,6.43
2023-04-18T07:24:14.807Z,4.97
2023-04-18T07:24:47.317Z,5.43
2023-04-18T07:25:19.941Z,5.00
2023-04-18T07:25:54.856Z,4.70
2023-04-18T07:26:27.768Z,8.02
2023-04-18T07:27:02.736Z,7.32
2023-04-18T07:27:36.591Z,6.05
2023-04-18T07:28:11.347Z,5.55
2023-04-18T07:28:43.594Z,7.45
2023-04-18T07:29:19.553Z,7.13
2023-04-18T07:29:54.334Z,5.95
2023-04-18T07:30:29.329Z,6.90
2023-04-18T07:31:03.948Z,5.45
2023-04-18T07:31:36.308Z,5.22
2023-04-18T07:32:11.544Z,7.07
2023-04-18T07:32:43.779Z,5.75
2023-04-18T07:33:18.690Z,5.28
2023-04-18T07:33:51.307Z,7.75
2023-04-18T07:34:27.272Z,7.18
2023-04-18T07:34:59.474Z,9.30
2023-04-18T07:35:34.342Z,7.00
2023-04-18T07:36:07.468Z,7.35
2023-04-18T07:36:40.212Z,6.88
2023-04-18T07:37:16.837Z,5.13
2023-04-18T07:37:49.120Z,8.05
2023-04-18T07:38:21.384Z,7.40
2023-04-18T07:38:56.185Z,5.95
2023-04-18T07:39:28.753Z,5.45